Time;durP1;ratioP1;P1;durP2;ratioP2;P2;SDS_P1;SDS_P2;PMS_P1;PMS_P2;Temp;Humidity;BMP_temperature;BMP_pressure;BME280_temperature;BME280_humidity;BME280_pressure;Samples;Min_cycle;Max_cycle;Signal;HPM_P1;HPM_P2
2023/06/19 00:01:15;;;;;;;8.63;5.95;;;;;;;21.38;75.20;100396.81;5029902;28;20037;-62
2023/06/19 00:03:40;;;;;;;8.63;6.15;;;;;;;21.34;75.39;100397.97;5036108;28;20569;-63
2023/06/19 00:06:06;;;;;;;9.93;5.80;;;;;;;21.32;75.56;100404.22;5029970;28;20033;-63
2023/06/19 00:08:31;;;;;;;6.82;6.13;;;;;;;21.30;75.75;100406.09;5014360;28;20044;-62
2023/06/19 00:10:56;;;;;;;7.47;6.68;;;;;;;21.26;75.89;100408.91;5031682;28;20047;-63
2023/06/19 00:13:22;;;;;;;8.45;6.13;;;;;;;21.28;75.97;100401.75;5031275;28;21143;-62
2023/06/19 00:15:47;;;;;;;7.82;6.43;;;;;;;21.31;76.29;100394.66;5032429;28;20051;-62
2023/06/19 00:18:13;;;;;;;6.00;5.43;;;;;;;21.33;75.94;100392.78;5019523;28;20397;-63
2023/06/19 00:20:39;;;;;;;9.95;7.18;;;;;;;21.31;76.00;100392.03;5035130;28;20026;-62
2023/06/19 00:23:06;;;;;;;7.80;6.70;;;;;;;21.27;75.94;100397.47;5036025;28;20072;-63
2023/06/19 00:25:31;;;;;;;9.32;6.63;;;;;;;21.24;76.24;100396.78;5040334;28;20039;-62
2023/06/19 00:27:57;;;;;;;12.23;7.65;;;;;;;21.23;76.48;100402.97;5038831;28;20049;-62
2023/06/19 00:30:22;;;;;;;8.23;7.32;;;;;;;21.20;75.84;100398.75;5039138;28;20043;-63
2023/06/19 00:32:49;;;;;;;8.10;6.93;;;;;;;21.18;76.09;100405.88;5038275;28;20047;-62
2023/06/19 00:35:16;;;;;;;7.68;5.82;;;;;;;21.13;76.27;100410.56;5038465;28;20041;-62
2023/06/19 00:37:45;;;;;;;7.40;6.70;;;;;;;21.08;76.61;100407.34;5036816;28;20036;-62
2023/06/19 00:40:19;;;;;;;8.13;6.93;;;;;;;21.06;76.35;100408.34;5034434;28;20051;-62
2023/06/19 00:42:45;;;;;;;5.95;5.35;;;;;;;21.04;76.39;100412.88;5032136;28;20060;-63
2023/06/19 00:45:10;;;;;;;10.40;7.30;;;;;;;21.03;76.82;100421.66;5039968;28;20557;-63
2023/06/19 00:47:35;;;;;;;9.55;6.90;;;;;;;21.03;76.50;100422.53;5040738;28;20082;-62
2023/06/19 00:50:01;;;;;;;8.15;6.70;;;;;;;21.00;76.54;100433.22;5038889;28;20063;-63
2023/06/19 00:52:26;;;;;;;6.90;6.28;;;;;;;20.99;76.73;100431.50;5036900;28;20787;-63
2023/06/19 00:54:51;;;;;;;6.05;5.30;;;;;;;20.97;76.73;100433.38;5035580;28;20131;-62
2023/06/19 00:57:17;;;;;;;7.38;6.18;;;;;;;20.98;76.83;100436.84;5018796;28;20476;-62
2023/06/19 00:59:42;;;;;;;6.47;5.68;;;;;;;20.98;76.87;100437.72;5036970;28;20359;-62
2023/06/19 01:02:07;;;;;;;7.43;6.60;;;;;;;21.01;76.48;100436.69;5015693;28;20044;-62
2023/06/19 01:04:33;;;;;;;11.10;7.95;;;;;;;21.04;77.38;100436.50;5034759;28;20077;-62
2023/06/19 01:07:22;;;;;;;11.20;8.45;;;;;;;21.03;77.67;100440.91;5033617;28;20049;-62
2023/06/19 01:09:52;;;;;;;9.80;7.53;;;;;;;21.02;78.04;100427.84;5034506;28;20103;-62
2023/06/19 01:12:27;;;;;;;8.90;8.00;;;;;;;21.02;78.31;100435.72;5036938;28;20111;-63
2023/06/19 01:15:02;;;;;;;10.68;8.13;;;;;;;21.02;78.43;100433.97;5039411;28;20482;-63
2023/06/19 01:17:29;;;;;;;10.27;8.52;;;;;;;21.03;78.35;100435.66;5032819;28;20099;-63
2023/06/19 01:19:58;;;;;;;8.73;7.82;;;;;;;21.00;77.73;100433.22;5033915;28;20045;-62
2023/06/19 01:22:30;;;;;;;7.78;7.07;;;;;;;20.98;77.95;100426.34;5038207;28;20036;-62
2023/06/19 01:24:56;;;;;;;8.40;7.50;;;;;;;20.93;78.13;100429.22;5038308;28;20055;-63
2023/06/19 01:27:22;;;;;;;9.00;7.25;;;;;;;20.87;78.44;100429.56;5037161;28;20096;-62
2023/06/19 01:29:49;;;;;;;8.88;6.85;;;;;;;20.83;78.50;100428.06;5035721;28;20029;-63
2023/06/19 01:32:20;;;;;;;7.60;6.63;;;;;;;20.77;78.92;100425.78;5018904;28;20119;-63
2023/06/19 01:34:47;;;;;;;8.68;7.10;;;;;;;20.71;79.26;100423.47;5040069;28;20039;-62
2023/06/19 01:37:13;;;;;;;7.72;6.95;;;;;;;20.67;79.87;100425.38;5038879;28;20405;-62
2023/06/19 01:39:40;;;;;;;9.18;7.35;;;;;;;20.64;80.13;100424.72;5035113;28;20056;-62
2023/06/19 01:42:06;;;;;;;11.27;7.90;;;;;;;20.62;80.61;100426.59;5036288;28;20103;-63
2023/06/19 01:44:32;;;;;;;9.35;7.78;;;;;;;20.62;80.52;100422.19;5019800;28;20524;-63
2023/06/19 01:46:57;;;;;;;8.40;7.50;;;;;;;20.65;80.80;100435.16;5021407;28;20132;-62
2023/06/19 01:49:23;;;;;;;8.40;7.47;;;;;;;20.66;80.91;100428.94;5032143;28;20051;-62
2023/06/19 01:51:50;;;;;;;11.63;7.70;;;;;;;20.69;81.31;100433.22;5036113;28;20047;-62
2023/06/19 01:54:15;;;;;;;8.73;7.03;;;;;;;20.69;81.08;100435.81;5035289;28;20120;-63
2023/06/19 01:56:41;;;;;;;9.02;7.93;;;;;;;20.71;80.93;100447.13;5038107;28;20033;-66
2023/06/19 01:59:06;;;;;;;9.77;7.72;;;;;;;20.76;80.05;100452.09;5035361;28;20087;-66
2023/06/19 02:01:31;;;;;;;8.20;7.20;;;;;;;20.79;79.72;100446.69;5039090;28;20044;-66
2023/06/19 02:03:57;;;;;;;8.65;7.75;;;;;;;20.84;79.15;100453.38;5040421;28;20045;-66
2023/06/19 02:06:22;;;;;;;9.82;7.95;;;;;;;20.88;78.56;100454.06;5045026;28;20040;-65
2023/06/19 02:08:48;;;;;;;9.20;7.65;;;;;;;20.89;78.18;100461.03;5028350;28;20029;-66
2023/06/19 02:11:13;;;;;;;8.90;7.32;;;;;;;20.92;78.04;100455.59;5042928;28;20040;-66
2023/06/19 02:13:39;;;;;;;7.75;7.05;;;;;;;20.94;77.74;100458.97;5041273;28;20123;-66
2023/06/19 02:16:04;;;;;;;9.13;7.32;;;;;;;20.95;77.65;100458.91;5035253;28;20502;-66
2023/06/19 02:18:29;;;;;;;7.97;7.18;;;;;;;20.99;77.23;100462.19;5039764;28;20028;-66
2023/06/19 02:20:55;;;;;;;8.77;7.88;;;;;;;21.01;76.98;100461.19;5042133;28;20112;-66
2023/06/19 02:23:20;;;;;;;9.20;7.75;;;;;;;21.05;77.00;100459.22;5042780;28;20073;-62
2023/06/19 02:25:45;;;;;;;8.52;6.25;;;;;;;21.09;76.75;100466.84;5039347;28;20037;-63
2023/06/19 02:28:11;;;;;;;10.35;8.02;;;;;;;21.15;76.57;100477.03;5038452;28;20038;-62
2023/06/19 02:30:36;;;;;;;8.88;7.15;;;;;;;21.18;76.36;100471.59;5034321;28;20092;-62
2023/06/19 02:33:01;;;;;;;7.82;6.90;;;;;;;21.22;76.30;100473.09;5033198;28;20040;-66
2023/06/19 02:35:27;;;;;;;16.05;7.53;;;;;;;21.26;76.31;100472.00;5040975;28;20409;-66
2023/06/19 02:37:52;;;;;;;7.95;6.45;;;;;;;21.31;76.39;100478.78;5039185;28;20415;-66
2023/06/19 02:40:17;;;;;;;8.65;6.88;;;;;;;21.33;76.09;100484.78;5041036;28;20502;-66
2023/06/19 02:42:43;;;;;;;7.95;7.15;;;;;;;21.34;75.96;100491.75;5039559;28;20053;-66
2023/06/19 02:45:08;;;;;;;7.30;6.60;;;;;;;21.35;75.85;100491.66;5035811;28;20104;-66
2023/06/19 02:47:34;;;;;;;8.02;7.18;;;;;;;21.33;75.82;100504.06;5042110;28;20033;-66
2023/06/19 02:50:00;;;;;;;7.72;6.93;;;;;;;21.29;75.77;100502.53;5036953;28;20149;-64
2023/06/19 02:52:27;;;;;;;9.98;7.13;;;;;;;21.23;75.98;100500.25;5039823;28;20041;-63
2023/06/19 02:54:53;;;;;;;7.57;6.85;;;;;;;21.15;76.10;100498.06;5038332;28;20092;-63
2023/06/19 02:57:18;;;;;;;9.25;7.05;;;;;;;21.05;76.46;100510.00;5044429;28;20052;-63
2023/06/19 02:59:45;;;;;;;7.70;6.88;;;;;;;20.98;76.78;100511.28;5038219;28;20610;-63
2023/06/19 03:02:11;;;;;;;7.90;7.10;;;;;;;20.91;76.76;100509.91;5039095;28;20537;-63
2023/06/19 03:04:36;;;;;;;9.07;7.53;;;;;;;20.87;76.72;100523.31;5033870;28;20079;-63
2023/06/19 03:07:02;;;;;;;7.45;6.57;;;;;;;20.82;76.59;100523.56;5032164;28;20420;-63
2023/06/19 03:09:28;;;;;;;8.57;6.72;;;;;;;20.80;76.36;100519.31;5032825;28;20043;-63
2023/06/19 03:11:54;;;;;;;7.47;6.35;;;;;;;20.78;75.32;100516.75;5038198;28;20057;-63
2023/06/19 03:14:20;;;;;;;6.95;6.25;;;;;;;20.80;74.35;100509.66;5035985;28;20124;-63
2023/06/19 03:16:45;;;;;;;8.65;5.95;;;;;;;20.84;73.18;100518.22;5035619;28;20048;-63
2023/06/19 03:19:11;;;;;;;6.40;5.78;;;;;;;20.85;72.99;100520.75;5029704;28;20098;-63
2023/06/19 03:21:36;;;;;;;6.53;5.93;;;;;;;20.87;71.86;100524.16;5032746;28;20186;-63
2023/06/19 03:24:02;;;;;;;6.70;5.63;;;;;;;20.91;70.82;100519.56;5036723;28;20032;-63
2023/06/19 03:26:27;;;;;;;6.18;5.00;;;;;;;20.92;70.55;100518.66;5033903;28;20044;-62
2023/06/19 03:28:52;;;;;;;5.60;5.10;;;;;;;20.93;70.33;100523.00;5034908;28;20514;-63
2023/06/19 03:31:18;;;;;;;7.28;5.60;;;;;;;20.94;70.02;100517.63;5025423;28;20069;-63
2023/06/19 03:33:43;;;;;;;6.68;5.38;;;;;;;20.97;69.42;100524.50;5036470;28;20127;-63
2023/06/19 03:36:09;;;;;;;6.70;5.57;;;;;;;21.00;69.24;100530.44;5032272;28;20033;-63
2023/06/19 03:38:34;;;;;;;7.55;4.95;;;;;;;21.06;68.53;100529.25;5033279;28;20053;-63
2023/06/19 03:41:00;;;;;;;5.78;4.88;;;;;;;21.04;68.77;100531.97;5034316;28;20032;-63
2023/06/19 03:43:25;;;;;;;5.40;4.65;;;;;;;21.08;68.56;100543.16;5036387;28;20049;-63
2023/06/19 03:45:50;;;;;;;7.93;5.15;;;;;;;21.11;68.22;100541.19;5037903;28;20565;-63
2023/06/19 03:48:17;;;;;;;5.80;5.13;;;;;;;21.18;67.73;100545.19;5030826;28;20036;-64
2023/06/19 03:50:42;;;;;;;5.55;4.78;;;;;;;21.22;67.48;100532.75;5015707;28;20418;-63
2023/06/19 03:53:08;;;;;;;6.05;5.00;;;;;;;21.31;66.56;100534.00;5036911;28;20052;-66
2023/06/19 03:55:33;;;;;;;5.78;4.95;;;;;;;21.37;66.36;100544.19;5035865;28;20415;-66
2023/06/19 03:57:59;;;;;;;5.93;4.85;;;;;;;21.39;66.55;100544.94;5026645;28;20045;-65
2023/06/19 04:00:24;;;;;;;5.60;5.05;;;;;;;21.39;66.50;100558.94;5025322;28;20036;-65
2023/06/19 04:02:49;;;;;;;7.20;5.65;;;;;;;21.41;66.25;100559.69;5038623;28;20025;-66
2023/06/19 04:05:19;;;;;;;6.05;4.90;;;;;;;21.48;65.99;100554.94;5034107;28;20033;-65
2023/06/19 04:07:45;;;;;;;5.55;4.93;;;;;;;21.55;65.22;100551.88;5035598;28;20841;-64
2023/06/19 04:10:11;;;;;;;6.22;5.63;;;;;;;21.68;64.59;100554.66;5035183;28;20034;-63
2023/06/19 04:12:37;;;;;;;6.78;4.65;;;;;;;21.79;64.04;100554.88;5037219;28;20044;-63
2023/06/19 04:15:02;;;;;;;6.90;5.13;;;;;;;21.85;64.18;100569.50;5034175;28;20141;-63
2023/06/19 04:17:28;;;;;;;5.35;4.85;;;;;;;21.88;64.07;100574.59;5037080;28;20033;-63
2023/06/19 04:19:53;;;;;;;6.75;4.70;;;;;;;21.90;64.37;100584.09;5034009;28;20041;-63
2023/06/19 04:22:18;;;;;;;5.47;4.95;;;;;;;21.92;64.29;100595.38;5033830;28;20040;-63
2023/06/19 04:24:44;;;;;;;5.90;4.72;;;;;;;21.97;64.05;100603.00;5033898;28;20090;-63
2023/06/19 04:27:09;;;;;;;5.45;4.68;;;;;;;21.98;64.20;100612.59;5033267;28;20737;-63
2023/06/19 04:29:35;;;;;;;8.05;5.50;;;;;;;22.01;64.45;100613.25;5033859;28;20035;-63
2023/06/19 04:32:03;;;;;;;6.55;5.20;;;;;;;22.03;64.63;100614.00;5032375;28;20037;-63
2023/06/19 04:34:28;;;;;;;5.40;4.90;;;;;;;22.05;64.52;100614.78;5033622;28;20741;-63
2023/06/19 04:36:58;;;;;;;7.35;5.35;;;;;;;22.06;64.38;100605.94;5031526;28;20046;-62
2023/06/19 04:39:23;;;;;;;7.53;5.40;;;;;;;22.07;64.47;100615.53;5033687;28;20092;-63
2023/06/19 04:41:49;;;;;;;6.22;5.15;;;;;;;22.09;64.81;100618.91;5039752;28;20032;-63
2023/06/19 04:44:14;;;;;;;5.68;4.60;;;;;;;22.05;65.24;100625.31;5040826;28;20063;-63
2023/06/19 04:46:41;;;;;;;7.95;5.25;;;;;;;22.05;65.20;100621.84;5034655;28;20056;-63
2023/06/19 04:49:06;;;;;;;8.75;5.32;;;;;;;22.05;65.46;100624.47;5035509;28;20044;-63
2023/06/19 04:51:32;;;;;;;5.88;5.18;;;;;;;22.04;65.88;100636.78;5031363;28;20024;-63
2023/06/19 04:54:02;;;;;;;5.95;4.72;;;;;;;22.05;65.89;100641.13;5038331;28;20466;-63
2023/06/19 04:56:28;;;;;;;10.27;5.95;;;;;;;22.00;65.57;100640.50;5039090;28;20044;-64
2023/06/19 04:58:56;;;;;;;8.43;6.07;;;;;;;21.98;66.05;100650.28;5033002;28;20037;-63
2023/06/19 05:01:27;;;;;;;8.13;5.70;;;;;;;21.97;66.40;100655.66;5031438;28;20033;-65
2023/06/19 05:03:52;;;;;;;7.10;5.75;;;;;;;21.93;66.72;100672.53;5038019;28;20115;-66
2023/06/19 05:06:18;;;;;;;6.82;5.88;;;;;;;21.92;67.14;100668.19;5036280;28;20035;-65
2023/06/19 05:08:43;;;;;;;7.75;5.53;;;;;;;21.89;67.16;100669.22;5037805;28;20033;-65
2023/06/19 05:11:08;;;;;;;10.30;5.70;;;;;;;21.88;67.03;100670.16;5036574;28;20037;-65
2023/06/19 05:13:34;;;;;;;9.45;5.60;;;;;;;21.91;66.93;100664.72;5038864;28;20067;-66
2023/06/19 05:15:59;;;;;;;6.95;5.97;;;;;;;21.97;67.49;100667.00;5039461;28;20073;-66
2023/06/19 05:18:24;;;;;;;6.20;4.75;;;;;;;22.00;67.18;100664.19;5038832;28;20080;-65
2023/06/19 05:20:50;;;;;;;9.35;5.40;;;;;;;22.00;67.47;100661.56;5035467;28;20036;-65
2023/06/19 05:23:15;;;;;;;7.55;5.75;;;;;;;21.99;67.66;100661.66;5023764;28;20131;-63
2023/06/19 05:25:42;;;;;;;7.97;5.05;;;;;;;22.04;67.60;100663.09;5028676;28;20593;-63
2023/06/19 05:28:08;;;;;;;9.43;5.50;;;;;;;22.10;67.59;100657.47;5037361;28;20040;-66
2023/06/19 05:30:34;;;;;;;6.80;5.13;;;;;;;22.19;66.95;100658.72;5036632;28;20064;-66
2023/06/19 05:33:00;;;;;;;6.75;5.13;;;;;;;22.26;66.50;100650.38;5039199;28;20033;-66
2023/06/19 05:35:26;;;;;;;6.88;6.18;;;;;;;22.31;66.00;100645.72;5036855;28;20116;-66
2023/06/19 05:37:51;;;;;;;6.53;5.28;;;;;;;22.36;65.85;100645.44;5038538;28;20099;-65
2023/06/19 05:40:16;;;;;;;5.90;5.07;;;;;;;22.38;65.44;100637.44;5037898;28;20069;-65
2023/06/19 05:42:42;;;;;;;6.22;5.57;;;;;;;22.41;65.56;100643.41;5043742;28;20068;-65
2023/06/19 05:45:07;;;;;;;6.05;4.97;;;;;;;22.40;65.78;100651.41;5037581;28;20048;-63
2023/06/19 05:47:33;;;;;;;6.60;5.70;;;;;;;22.42;65.61;100655.63;5038788;28;20040;-62
2023/06/19 05:49:58;;;;;;;6.82;6.07;;;;;;;22.47;65.61;100665.91;5035916;28;20051;-62
2023/06/19 05:52:24;;;;;;;6.20;5.30;;;;;;;22.61;65.29;100663.31;5035553;28;20152;-62
2023/06/19 05:54:50;;;;;;;6.97;5.45;;;;;;;22.80;64.46;100661.25;5032649;28;20128;-62
2023/06/19 05:57:16;;;;;;;11.30;6.22;;;;;;;22.92;64.15;100660.50;5035019;28;20025;-62
2023/06/19 05:59:41;;;;;;;6.68;5.03;;;;;;;22.99;63.60;100660.97;5016302;28;20025;-62
2023/06/19 06:02:07;;;;;;;5.63;5.03;;;;;;;23.08;63.72;100669.19;5034524;28;20075;-62
2023/06/19 06:04:34;;;;;;;11.10;6.30;;;;;;;23.14;63.08;100655.63;5016738;28;20487;-63
2023/06/19 06:06:59;;;;;;;9.90;6.28;;;;;;;23.15;62.83;100664.38;5032204;28;20040;-62
2023/06/19 06:09:25;;;;;;;7.28;5.78;;;;;;;23.15;63.08;100673.16;5028789;28;20029;-62
2023/06/19 06:11:50;;;;;;;6.35;5.32;;;;;;;23.18;64.14;100702.00;5026541;28;20035;-62
2023/06/19 06:14:15;;;;;;;7.20;5.80;;;;;;;23.12;63.57;100691.81;5024546;28;21933;-62
2023/06/19 06:16:41;;;;;;;6.72;5.13;;;;;;;23.14;63.67;100689.06;5028344;28;20302;-62
2023/06/19 06:19:06;;;;;;;6.05;5.10;;;;;;;23.16;63.18;100682.75;5028581;28;20088;-62
2023/06/19 06:21:32;;;;;;;7.85;5.47;;;;;;;23.20;63.69;100684.28;5038136;28;20029;-62
2023/06/19 06:23:57;;;;;;;5.65;5.05;;;;;;;23.24;63.67;100674.41;5037547;28;20055;-62
2023/06/19 06:26:22;;;;;;;5.72;5.13;;;;;;;23.27;63.44;100677.66;5039766;28;20083;-62
2023/06/19 06:28:48;;;;;;;7.47;5.93;;;;;;;23.36;62.93;100679.75;5032096;28;20033;-62
2023/06/19 06:31:13;;;;;;;6.88;5.70;;;;;;;23.36;61.26;100647.25;5036967;28;20061;-61
2023/06/19 06:33:38;;;;;;;6.25;5.65;;;;;;;23.34;61.44;100644.72;5033198;28;20826;-62
2023/06/19 06:36:04;;;;;;;7.40;5.70;;;;;;;23.28;61.35;100654.78;5019297;28;21786;-62
2023/06/19 06:38:29;;;;;;;6.20;5.50;;;;;;;23.30;61.79;100652.94;5015737;28;20048;-62
2023/06/19 06:40:55;;;;;;;6.53;5.13;;;;;;;23.27;61.40;100661.03;5036974;28;20136;-62
2023/06/19 06:43:20;;;;;;;7.22;4.97;;;;;;;23.34;61.72;100663.16;5033286;28;20514;-62
2023/06/19 06:45:46;;;;;;;7.85;5.38;;;;;;;23.39;61.51;100669.00;5033108;28;20084;-62
2023/06/19 06:48:11;;;;;;;7.78;5.32;;;;;;;23.42;62.22;100692.53;5033631;28;20048;-62
2023/06/19 06:50:37;;;;;;;7.05;5.32;;;;;;;23.27;62.33;100693.50;5037640;28;20044;-62
2023/06/19 06:53:02;;;;;;;6.32;5.68;;;;;;;23.27;62.46;100703.22;5033737;28;20033;-62
2023/06/19 06:55:28;;;;;;;5.93;5.32;;;;;;;23.29;62.57;100711.88;5032067;28;20041;-62
2023/06/19 06:57:53;;;;;;;5.57;4.97;;;;;;;23.40;62.48;100710.28;5033853;28;20045;-61
2023/06/19 07:00:19;;;;;;;6.90;5.35;;;;;;;23.48;62.29;100708.97;5034256;28;20029;-62
2023/06/19 07:02:46;;;;;;;6.93;5.90;;;;;;;23.55;62.30;100703.19;5037072;28;20486;-62
2023/06/19 07:05:11;;;;;;;8.10;5.40;;;;;;;23.74;61.55;100695.81;5025372;28;20041;-62
2023/06/19 07:07:37;;;;;;;6.78;5.75;;;;;;;23.85;61.49;100689.84;5033628;28;20041;-62
2023/06/19 07:10:02;;;;;;;8.73;6.43;;;;;;;23.94;61.49;100689.25;5032648;28;20048;-61
2023/06/19 07:12:28;;;;;;;6.78;5.60;;;;;;;24.02;61.42;100686.97;5036494;28;20116;-62
2023/06/19 07:14:54;;;;;;;6.13;5.47;;;;;;;24.15;60.73;100679.09;5037604;28;20033;-62
2023/06/19 07:17:19;;;;;;;5.97;5.38;;;;;;;24.23;60.54;100684.72;5032609;28;20033;-62
2023/06/19 07:19:45;;;;;;;5.30;4.80;;;;;;;24.34;59.35;100667.22;5031570;28;20043;-61
2023/06/19 07:22:10;;;;;;;4.70;4.00;;;;;;;24.55;59.13;100655.19;5027956;28;20040;-61
2023/06/19 07:24:36;;;;;;;5.47;3.95;;;;;;;24.93;58.49;100647.34;5026234;28;20037;-62
2023/06/19 07:27:01;;;;;;;4.35;3.65;;;;;;;25.14;56.69;100628.25;5023861;28;20025;-61
2023/06/19 07:29:27;;;;;;;4.18;3.78;;;;;;;25.35;56.66;100638.16;5021242;28;20068;-62
2023/06/19 07:31:52;;;;;;;4.93;3.90;;;;;;;25.56;56.25;100627.88;5031643;28;20447;-62
2023/06/19 07:34:18;;;;;;;4.28;3.70;;;;;;;25.72;56.12;100632.88;5036078;28;20033;-61
2023/06/19 07:36:43;;;;;;;3.70;2.60;;;;;;;25.75;53.80;100608.81;5028602;28;20049;-61
2023/06/19 07:39:09;;;;;;;3.47;2.72;;;;;;;25.83;53.78;100614.44;5030449;28;20127;-61
2023/06/19 07:41:35;;;;;;;3.38;2.20;;;;;;;25.89;53.24;100616.59;5035457;28;20048;-61
2023/06/19 07:44:00;;;;;;;2.80;2.22;;;;;;;25.84;52.97;100603.69;5026054;28;20401;-61
2023/06/19 07:46:26;;;;;;;4.43;2.17;;;;;;;25.81;52.24;100611.88;5030405;28;20041;-61
2023/06/19 07:48:51;;;;;;;2.88;2.00;;;;;;;25.94;52.07;100609.16;5016930;28;20601;-61
2023/06/19 07:51:16;;;;;;;5.43;1.90;;;;;;;26.05;51.86;100610.06;5004418;28;20165;-62
2023/06/19 07:53:43;;;;;;;4.38;2.25;;;;;;;25.89;50.41;100592.75;5022549;28;20041;-62
2023/06/19 07:56:09;;;;;;;2.42;1.73;;;;;;;26.03;50.94;100604.03;5023296;28;20156;-62
2023/06/19 07:58:34;;;;;;;3.00;1.77;;;;;;;26.15;50.73;100597.00;5023445;28;20098;-62
2023/06/19 08:01:00;;;;;;;3.78;1.70;;;;;;;26.04;49.48;100573.91;5027690;28;20119;-61
2023/06/19 08:03:25;;;;;;;1.98;1.40;;;;;;;25.98;49.53;100587.63;5028948;28;20041;-62
2023/06/19 08:05:51;;;;;;;2.90;1.20;;;;;;;25.75;49.15;100592.94;5024515;28;20061;-61
2023/06/19 08:08:16;;;;;;;1.83;1.00;;;;;;;;;;5032062;28;20061;-61
2023/06/19 08:10:41;;;;;;;1.80;1.05;;;;;;;25.62;50.32;100604.44;5037605;28;20045;-62
2023/06/19 08:13:07;;;;;;;1.77;1.20;;;;;;;25.60;49.67;100608.16;5021509;28;20041;-61
2023/06/19 08:15:32;;;;;;;3.05;0.93;;;;;;;25.65;49.53;100603.34;5037193;28;20044;-62
2023/06/19 08:17:58;;;;;;;1.33;1.00;;;;;;;25.72;49.69;100609.03;5038997;28;20637;-61
2023/06/19 08:20:23;;;;;;;3.15;1.02;;;;;;;25.72;49.72;100604.59;5035489;28;20136;-61
2023/06/19 08:22:49;;;;;;;2.25;1.10;;;;;;;25.73;49.92;100611.59;5033583;28;20036;-62
2023/06/19 08:25:14;;;;;;;2.55;1.00;;;;;;;25.69;49.85;100622.50;5035091;28;20048;-62
2023/06/19 08:27:39;;;;;;;1.30;1.10;;;;;;;25.68;49.42;100612.91;5034644;28;20029;-61
2023/06/19 08:30:05;;;;;;;2.17;1.10;;;;;;;25.66;49.37;100613.00;5027851;28;20043;-61
2023/06/19 08:32:31;;;;;;;4.10;1.48;;;;;;;25.60;49.23;100600.22;5031337;28;20045;-61
2023/06/19 08:34:56;;;;;;;1.30;1.10;;;;;;;25.57;49.29;100614.50;5016089;28;20037;-61
2023/06/19 08:37:21;;;;;;;2.30;1.02;;;;;;;25.57;49.94;100611.88;5031327;28;20036;-62
2023/06/19 08:39:47;;;;;;;4.75;1.10;;;;;;;25.62;49.22;100620.31;5038321;28;20406;-62
2023/06/19 08:42:12;;;;;;;2.83;1.35;;;;;;;25.75;49.27;100614.13;5040784;28;20556;-62
2023/06/19 08:44:38;;;;;;;1.67;1.33;;;;;;;25.84;49.35;100619.59;5036326;28;20398;-61
2023/06/19 08:47:04;;;;;;;1.50;1.23;;;;;;;25.91;48.42;100604.09;5037378;28;20034;-61
2023/06/19 08:49:31;;;;;;;1.52;0.95;;;;;;;26.06;48.38;100605.59;5032872;28;20506;-62
2023/06/19 08:51:56;;;;;;;2.38;1.42;;;;;;;26.18;48.11;100610.84;5037751;28;20051;-62
2023/06/19 08:54:22;;;;;;;1.83;1.40;;;;;;;26.36;47.97;100608.59;5016393;28;20660;-62
2023/06/19 08:56:48;;;;;;;3.15;1.52;;;;;;;26.40;48.24;100619.81;5038657;28;20033;-61
2023/06/19 08:59:15;;;;;;;2.42;1.30;;;;;;;26.20;47.36;100608.09;5039974;28;20797;-62
2023/06/19 09:01:51;;;;;;;1.75;1.45;;;;;;;26.24;46.91;100604.25;5037628;28;20124;-62
2023/06/19 09:04:19;;;;;;;1.77;1.35;;;;;;;26.18;46.02;100592.28;5025131;28;20065;-61
2023/06/19 09:06:49;;;;;;;1.70;1.45;;;;;;;26.27;46.66;100595.22;5041478;28;20076;-62
2023/06/19 09:09:15;;;;;;;3.00;1.75;;;;;;;26.12;46.88;100603.34;5036321;28;20029;-62
2023/06/19 09:11:43;;;;;;;3.17;1.60;;;;;;;26.20;46.58;100600.13;5034762;28;20027;-61
2023/06/19 09:14:10;;;;;;;3.08;1.60;;;;;;;26.23;47.02;100614.94;5033925;28;20071;-60
2023/06/19 09:16:40;;;;;;;2.88;1.73;;;;;;;26.27;46.13;100611.13;5034596;28;20068;-61
2023/06/19 09:19:06;;;;;;;2.42;1.83;;;;;;;26.28;47.11;100629.53;5037616;28;20087;-62
2023/06/19 09:21:34;;;;;;;3.85;1.65;;;;;;;26.39;46.45;100623.44;5038892;28;20020;-61
2023/06/19 09:24:07;;;;;;;1.67;1.33;;;;;;;26.53;46.29;100624.09;5035504;28;20378;-61
2023/06/19 09:26:33;;;;;;;2.80;1.80;;;;;;;26.63;45.68;100605.63;5037494;28;20033;-61
2023/06/19 09:29:13;;;;;;;4.22;2.10;;;;;;;26.58;45.71;100605.16;5031452;28;20384;-62
2023/06/19 09:31:41;;;;;;;3.15;2.35;;;;;;;26.45;45.80;100613.19;5037624;28;20063;-61
2023/06/19 09:34:06;;;;;;;2.75;1.60;;;;;;;26.50;45.92;100613.72;5038221;28;20450;-61
2023/06/19 09:36:33;;;;;;;2.63;1.70;;;;;;;26.68;45.84;100611.44;5036154;28;20025;-61
2023/06/19 09:39:01;;;;;;;2.42;2.00;;;;;;;26.86;46.08;100610.06;5041246;28;20095;-61
2023/06/19 09:41:29;;;;;;;3.38;2.17;;;;;;;26.67;45.69;100612.41;5034027;28;20805;-61
2023/06/19 09:43:59;;;;;;;5.70;2.20;;;;;;;26.71;46.05;100606.75;5037006;28;20067;-61
2023/06/19 09:46:36;;;;;;;4.25;2.15;;;;;;;26.67;46.16;100610.59;5036327;28;20041;-61
2023/06/19 09:49:06;;;;;;;3.78;1.80;;;;;;;26.73;45.91;100609.28;5035185;28;20187;-63
2023/06/19 09:51:36;;;;;;;3.90;2.17;;;;;;;26.73;45.94;100607.47;5039024;28;20036;-61
2023/06/19 09:54:03;;;;;;;2.60;1.92;;;;;;;26.74;44.94;100592.41;5032395;28;20041;-61
2023/06/19 09:56:29;;;;;;;3.42;2.13;;;;;;;26.84;45.41;100605.84;5034820;28;20465;-62
2023/06/19 09:58:59;;;;;;;3.17;1.92;;;;;;;26.86;45.26;100607.41;5035113;28;20049;-61
2023/06/19 10:01:28;;;;;;;3.13;2.20;;;;;;;26.97;45.38;100609.19;5038713;28;20121;-62
2023/06/19 10:04:05;;;;;;;3.67;2.00;;;;;;;26.87;45.45;100610.91;5036268;28;20056;-62
2023/06/19 10:06:30;;;;;;;2.70;1.92;;;;;;;26.95;45.08;100611.97;5030273;28;20091;-62
2023/06/19 10:09:06;;;;;;;2.58;1.95;;;;;;;27.00;44.66;100607.16;5033112;28;20738;-64
2023/06/19 10:11:47;;;;;;;3.05;1.98;;;;;;;27.17;43.72;100598.69;5039486;28;20532;-62
2023/06/19 10:14:13;;;;;;;3.03;2.20;;;;;;;27.19;44.23;100610.00;5032473;28;20494;-62
2023/06/19 10:16:41;;;;;;;3.95;2.08;;;;;;;27.17;43.43;100601.34;5035775;28;20043;-62
2023/06/19 10:19:20;;;;;;;4.55;2.35;;;;;;;27.26;44.08;100592.66;5031303;28;20044;-61
2023/06/19 10:21:47;;;;;;;3.95;2.47;;;;;;;27.50;43.57;100589.84;5032961;28;20088;-61
2023/06/19 10:24:19;;;;;;;4.60;2.50;;;;;;;27.59;42.45;100578.47;5036720;28;20032;-61
2023/06/19 10:26:57;;;;;;;4.97;2.33;;;;;;;27.71;42.17;100569.50;5033310;28;20044;-61
2023/06/19 10:29:22;;;;;;;3.53;2.20;;;;;;;27.69;41.92;100566.16;5033681;28;20099;-61
2023/06/19 10:31:48;;;;;;;6.18;2.55;;;;;;;27.76;42.38;100572.63;5037133;28;20036;-61
2023/06/19 10:34:13;;;;;;;4.65;2.70;;;;;;;27.79;41.63;100569.72;5035873;28;20896;-61
2023/06/19 10:36:38;;;;;;;4.53;2.20;;;;;;;27.65;41.79;100570.00;5014200;28;20041;-61
2023/06/19 10:39:04;;;;;;;3.10;2.40;;;;;;;27.75;42.26;100572.75;5031370;28;20095;-60
2023/06/19 10:41:31;;;;;;;3.78;2.38;;;;;;;28.00;41.65;100566.22;5034377;28;20055;-61
2023/06/19 10:43:59;;;;;;;4.10;2.45;;;;;;;28.14;40.90;100558.00;5033434;28;20052;-60
2023/06/19 10:46:33;;;;;;;3.22;2.30;;;;;;;28.16;40.35;100550.72;5032118;28;20120;-60
2023/06/19 10:49:04;;;;;;;4.38;2.60;;;;;;;28.21;40.17;100535.22;5024973;28;20720;-61
2023/06/19 10:51:37;;;;;;;6.22;2.60;;;;;;;28.19;40.05;100540.69;5024012;28;20029;-61
2023/06/19 10:54:02;;;;;;;3.30;2.60;;;;;;;28.07;40.55;100549.66;5023745;28;20033;-61
2023/06/19 10:56:28;;;;;;;2.92;2.40;;;;;;;28.22;40.48;100550.19;5013454;28;20048;-61
2023/06/19 10:59:02;;;;;;;3.63;2.40;;;;;;;28.37;40.31;100550.72;5022841;28;20051;-61
2023/06/19 11:01:36;;;;;;;3.72;2.40;;;;;;;28.52;39.50;100526.31;5034864;28;20056;-61
2023/06/19 11:04:06;;;;;;;5.72;2.53;;;;;;;28.83;39.10;100528.00;5027922;28;20045;-62
2023/06/19 11:06:32;;;;;;;4.60;2.00;;;;;;;28.95;38.59;100531.38;5033300;28;20017;-62
2023/06/19 11:09:00;;;;;;;3.78;2.90;;;;;;;29.15;38.82;100529.63;5036242;28;20075;-61
2023/06/19 11:11:35;;;;;;;5.40;2.42;;;;;;;29.30;39.31;100549.56;5031759;28;20032;-61
2023/06/19 11:14:00;;;;;;;6.03;2.88;;;;;;;29.47;37.89;100522.28;5034750;28;20115;-62
2023/06/19 11:16:27;;;;;;;6.32;2.60;;;;;;;29.76;37.97;100523.13;5031006;28;20053;-61
2023/06/19 11:18:58;;;;;;;2.78;2.45;;;;;;;29.64;38.10;100521.59;5028382;28;20040;-62
2023/06/19 11:21:34;;;;;;;3.17;2.20;;;;;;;29.60;37.41;100519.34;5031901;28;20098;-61